sensor_id;sensor_type;location;lat;lon;timestamp;pressure;altitude;pressure_sealevel;temperature;humidity
929;BME280;451;47.988;7.842;2023-08-24T00:01:29;98524.66;;;23.71;92.92
929;BME280;451;47.988;7.842;2023-08-24T00:10:34;98482.16;;;23.63;90.26
929;BME280;451;47.988;7.842;2023-08-24T00:19:37;98521.09;;;23.93;90.85
929;BME280;451;47.988;7.842;2023-08-24T00:28:42;98521.00;;;23.56;92.42
929;BME280;451;47.988;7.842;2023-08-24T00:37:45;98471.53;;;23.25;92.60
929;BME280;451;47.988;7.842;2023-08-24T00:46:52;98446.94;;;23.33;92.56
929;BME280;451;47.988;7.842;2023-08-24T00:55:55;98468.50;;;23.43;93.08
929;BME280;451;47.988;7.842;2023-08-24T01:05:01;98472.75;;;23.39;92.08
929;BME280;451;47.988;7.842;2023-08-24T01:14:12;98443.25;;;23.39;90.46
929;BME280;451;47.988;7.842;2023-08-24T01:23:32;98431.09;;;23.58;88.95
929;BME280;451;47.988;7.842;2023-08-24T01:32:38;98441.66;;;23.43;90.73
929;BME280;451;47.988;7.842;2023-08-24T01:41:42;98449.56;;;23.28;90.94
929;BME280;451;47.988;7.842;2023-08-24T01:50:49;98454.81;;;23.18;90.98
929;BME280;451;47.988;7.842;2023-08-24T01:59:53;98439.25;;;23.42;90.26
929;BME280;451;47.988;7.842;2023-08-24T02:08:57;98418.50;;;23.59;89.07
929;BME280;451;47.988;7.842;2023-08-24T02:18:00;98425.50;;;23.38;92.83
929;BME280;451;47.988;7.842;2023-08-24T02:27:05;98428.59;;;23.25;95.27
929;BME280;451;47.988;7.842;2023-08-24T02:36:08;98433.56;;;23.38;94.79
929;BME280;451;47.988;7.842;2023-08-24T02:45:13;98417.94;;;23.57;93.36
929;BME280;451;47.988;7.842;2023-08-24T02:54:16;98410.28;;;23.17;97.40
929;BME280;451;47.988;7.842;2023-08-24T03:03:23;98366.63;;;23.00;97.92
929;BME280;451;47.988;7.842;2023-08-24T03:12:27;98400.50;;;23.32;94.75
929;BME280;451;47.988;7.842;2023-08-24T03:21:33;98383.75;;;23.20;93.09
929;BME280;451;47.988;7.842;2023-08-24T03:30:37;98368.66;;;22.87;95.61
929;BME280;451;47.988;7.842;2023-08-24T03:39:42;98373.25;;;22.27;98.81
929;BME280;451;47.988;7.842;2023-08-24T03:48:45;98366.22;;;22.64;95.84
929;BME280;451;47.988;7.842;2023-08-24T03:57:50;98349.72;;;22.72;94.88
929;BME280;451;47.988;7.842;2023-08-24T04:06:53;98355.72;;;22.79;95.38
929;BME280;451;47.988;7.842;2023-08-24T04:15:59;98339.22;;;22.92;94.23
929;BME280;451;47.988;7.842;2023-08-24T04:25:02;98329.75;;;22.85;93.70
929;BME280;451;47.988;7.842;2023-08-24T04:34:07;98336.44;;;22.61;94.28
929;BME280;451;47.988;7.842;2023-08-24T04:43:11;98344.25;;;23.11;92.10
929;BME280;451;47.988;7.842;2023-08-24T04:52:15;98354.41;;;23.09;92.63
929;BME280;451;47.988;7.842;2023-08-24T05:01:18;98362.09;;;23.27;92.83
929;BME280;451;47.988;7.842;2023-08-24T05:10:23;98356.63;;;23.17;94.73
929;BME280;451;47.988;7.842;2023-08-24T05:19:27;98370.09;;;23.22;94.64
929;BME280;451;47.988;7.842;2023-08-24T05:28:32;98373.56;;;23.49;93.98
929;BME280;451;47.988;7.842;2023-08-24T05:37:35;98363.56;;;23.71;93.28
929;BME280;451;47.988;7.842;2023-08-24T05:46:40;98368.09;;;24.08;90.14
929;BME280;451;47.988;7.842;2023-08-24T05:55:43;98390.25;;;24.25;89.25
929;BME280;451;47.988;7.842;2023-08-24T06:04:48;98396.53;;;24.41;88.28
929;BME280;451;47.988;7.842;2023-08-24T06:13:52;98388.94;;;24.28;88.68
929;BME280;451;47.988;7.842;2023-08-24T06:22:57;98385.91;;;24.71;85.46
929;BME280;451;47.988;7.842;2023-08-24T06:32:01;98405.38;;;24.94;84.91
929;BME280;451;47.988;7.842;2023-08-24T06:41:05;98408.41;;;25.17;81.66
929;BME280;451;47.988;7.842;2023-08-24T06:50:10;98410.50;;;24.90;79.34
929;BME280;451;47.988;7.842;2023-08-24T06:59:15;98402.50;;;24.48;82.72
929;BME280;451;47.988;7.842;2023-08-24T07:08:18;98404.06;;;25.06;80.18
929;BME280;451;47.988;7.842;2023-08-24T07:17:23;98400.41;;;25.48;79.65
929;BME280;451;47.988;7.842;2023-08-24T07:26:26;98394.19;;;26.23;75.42
929;BME280;451;47.988;7.842;2023-08-24T07:35:31;98404.16;;;26.07;74.79
929;BME280;451;47.988;7.842;2023-08-24T07:44:34;98397.88;;;26.53;72.12
929;BME280;451;47.988;7.842;2023-08-24T07:53:39;98396.00;;;28.48;63.45
929;BME280;451;47.988;7.842;2023-08-24T08:02:42;98400.78;;;29.17;59.20
929;BME280;451;47.988;7.842;2023-08-24T08:11:46;98385.34;;;29.88;56.52
929;BME280;451;47.988;7.842;2023-08-24T08:20:50;98378.31;;;28.79;60.64
929;BME280;451;47.988;7.842;2023-08-24T08:29:55;98374.44;;;28.62;59.13
929;BME280;451;47.988;7.842;2023-08-24T08:38:59;98359.16;;;29.13;56.64
929;BME280;451;47.988;7.842;2023-08-24T08:48:04;98369.41;;;29.16;56.78
929;BME280;451;47.988;7.842;2023-08-24T08:57:08;98362.16;;;28.93;58.34
929;BME280;451;47.988;7.842;2023-08-24T09:06:14;98362.50;;;29.05;58.30
929;BME280;451;47.988;7.842;2023-08-24T09:15:24;98345.75;;;30.05;56.62
929;BME280;451;47.988;7.842;2023-08-24T09:24:33;98348.09;;;29.28;60.83
929;BME280;451;47.988;7.842;2023-08-24T09:33:36;98309.09;;;30.22;58.71
929;BME280;451;47.988;7.842;2023-08-24T09:42:42;98304.41;;;32.11;53.44
929;BME280;451;47.988;7.842;2023-08-24T09:51:46;98281.41;;;33.80;49.37
929;BME280;451;47.988;7.842;2023-08-24T10:00:50;98253.06;;;34.61;46.84
929;BME280;451;47.988;7.842;2023-08-24T10:09:58;98260.31;;;35.97;44.60
929;BME280;451;47.988;7.842;2023-08-24T10:19:07;98231.25;;;34.82;45.91
929;BME280;451;47.988;7.842;2023-08-24T10:28:11;98246.09;;;33.11;50.68
929;BME280;451;47.988;7.842;2023-08-24T10:37:16;98213.13;;;32.70;50.77
929;BME280;451;47.988;7.842;2023-08-24T10:46:19;98218.03;;;33.83;48.01
929;BME280;451;47.988;7.842;2023-08-24T10:55:26;98206.28;;;34.21;47.42
929;BME280;451;47.988;7.842;2023-08-24T11:04:29;98178.19;;;34.41;47.35
929;BME280;451;47.988;7.842;2023-08-24T11:13:33;98165.75;;;34.52;47.33
929;BME280;451;47.988;7.842;2023-08-24T11:22:37;98169.94;;;33.61;49.14
929;BME280;451;47.988;7.842;2023-08-24T11:31:42;98164.91;;;35.38;46.26
929;BME280;451;47.988;7.842;2023-08-24T11:40:45;98162.13;;;35.71;46.45
929;BME280;451;47.988;7.842;2023-08-24T11:49:50;98155.56;;;36.24;44.41
929;BME280;451;47.988;7.842;2023-08-24T11:58:53;98132.19;;;36.83;43.49
929;BME280;451;47.988;7.842;2023-08-24T12:07:57;98127.84;;;37.25;43.02
929;BME280;451;47.988;7.842;2023-08-24T12:17:06;98120.00;;;36.00;44.88
929;BME280;451;47.988;7.842;2023-08-24T12:26:18;98094.47;;;36.92;43.77
929;BME280;451;47.988;7.842;2023-08-24T12:35:21;98065.47;;;37.22;43.00
929;BME280;451;47.988;7.842;2023-08-24T12:44:26;98056.53;;;38.30;40.78
929;BME280;451;47.988;7.842;2023-08-24T12:53:29;98039.53;;;36.45;43.50
929;BME280;451;47.988;7.842;2023-08-24T13:02:35;98025.50;;;36.62;42.89
929;BME280;451;47.988;7.842;2023-08-24T13:11:39;97992.84;;;37.51;41.60
929;BME280;451;47.988;7.842;2023-08-24T13:20:44;97966.13;;;37.48;42.39
929;BME280;451;47.988;7.842;2023-08-24T13:29:47;97946.25;;;38.51;41.04
929;BME280;451;47.988;7.842;2023-08-24T13:38:53;97912.44;;;38.96;39.50
929;BME280;451;47.988;7.842;2023-08-24T13:47:56;97890.72;;;38.91;38.87
929;BME280;451;47.988;7.842;2023-08-24T13:57:01;97894.91;;;39.07;38.04
929;BME280;451;47.988;7.842;2023-08-24T14:06:04;97887.66;;;39.52;36.94
929;BME280;451;47.988;7.842;2023-08-24T14:15:09;97881.88;;;38.52;37.99
929;BME280;451;47.988;7.842;2023-08-24T14:24:13;97885.22;;;38.64;36.99
929;BME280;451;47.988;7.842;2023-08-24T14:33:18;97901.28;;;37.98;36.20
929;BME280;451;47.988;7.842;2023-08-24T14:42:21;97906.19;;;38.76;35.07
929;BME280;451;47.988;7.842;2023-08-24T14:51:26;97886.16;;;39.28;35.18
929;BME280;451;47.988;7.842;2023-08-24T15:00:29;97908.75;;;37.24;40.21
929;BME280;451;47.988;7.842;2023-08-24T15:09:34;97926.41;;;36.28;42.37
929;BME280;451;47.988;7.842;2023-08-24T15:18:37;97925.88;;;36.11;42.84
929;BME280;451;47.988;7.842;2023-08-24T15:27:42;97968.88;;;33.91;52.86
929;BME280;451;47.988;7.842;2023-08-24T15:36:45;97954.69;;;32.68;56.77
929;BME280;451;47.988;7.842;2023-08-24T15:45:50;97924.84;;;33.10;55.26
929;BME280;451;47.988;7.842;2023-08-24T15:54:54;97965.88;;;32.20;56.83
929;BME280;451;47.988;7.842;2023-08-24T16:03:58;97962.00;;;32.85;55.49
929;BME280;451;47.988;7.842;2023-08-24T16:13:02;97961.19;;;32.47;58.11
929;BME280;451;47.988;7.842;2023-08-24T16:22:06;97982.47;;;33.79;55.84
929;BME280;451;47.988;7.842;2023-08-24T16:31:10;97988.22;;;32.52;58.89
929;BME280;451;47.988;7.842;2023-08-24T16:40:14;97989.91;;;31.67;62.24
929;BME280;451;47.988;7.842;2023-08-24T16:49:17;97988.22;;;31.31;63.71
929;BME280;451;47.988;7.842;2023-08-24T16:58:22;97989.19;;;31.44;63.16
929;BME280;451;47.988;7.842;2023-08-24T17:07:25;98014.44;;;31.27;63.22
929;BME280;451;47.988;7.842;2023-08-24T17:16:31;98015.81;;;31.07;62.41
929;BME280;451;47.988;7.842;2023-08-24T17:25:37;98063.38;;;31.44;62.90
929;BME280;451;47.988;7.842;2023-08-24T17:34:42;98009.56;;;31.63;62.62
929;BME280;451;47.988;7.842;2023-08-24T17:43:45;97998.47;;;28.84;88.09
929;BME280;451;47.988;7.842;2023-08-24T17:52:49;98357.00;;;26.10;100.00
929;BME280;451;47.988;7.842;2023-08-24T18:01:53;98665.88;;;22.96;100.00
929;BME280;451;47.988;7.842;2023-08-24T18:11:02;98625.59;;;20.97;100.00
929;BME280;451;47.988;7.842;2023-08-24T18:20:07;98565.94;;;21.31;100.00
929;BME280;451;47.988;7.842;2023-08-24T18:29:11;98562.31;;;21.38;100.00
929;BME280;451;47.988;7.842;2023-08-24T18:38:15;98467.13;;;21.70;100.00
929;BME280;451;47.988;7.842;2023-08-24T18:47:19;98401.06;;;22.04;100.00
929;BME280;451;47.988;7.842;2023-08-24T18:56:22;98282.34;;;22.20;100.00
929;BME280;451;47.988;7.842;2023-08-24T19:05:27;98316.44;;;22.25;100.00
929;BME280;451;47.988;7.842;2023-08-24T19:14:30;98261.03;;;22.52;100.00
929;BME280;451;47.988;7.842;2023-08-24T19:23:37;98212.53;;;22.27;100.00
929;BME280;451;47.988;7.842;2023-08-24T19:32:41;98226.56;;;22.61;100.00
929;BME280;451;47.988;7.842;2023-08-24T19:41:45;98232.66;;;22.56;100.00
929;BME280;451;47.988;7.842;2023-08-24T19:50:49;98232.31;;;22.74;100.00
929;BME280;451;47.988;7.842;2023-08-24T19:59:54;98209.81;;;22.75;100.00
929;BME280;451;47.988;7.842;2023-08-24T20:08:57;98162.13;;;22.77;100.00
929;BME280;451;47.988;7.842;2023-08-24T20:18:02;98115.91;;;22.06;100.00
929;BME280;451;47.988;7.842;2023-08-24T20:27:06;98138.75;;;21.92;100.00
929;BME280;451;47.988;7.842;2023-08-24T20:36:11;98190.63;;;22.30;100.00
929;BME280;451;47.988;7.842;2023-08-24T20:45:14;98238.50;;;23.07;100.00
929;BME280;451;47.988;7.842;2023-08-24T20:54:19;98268.25;;;22.51;100.00
929;BME280;451;47.988;7.842;2023-08-24T21:03:22;98242.59;;;22.82;100.00
929;BME280;451;47.988;7.842;2023-08-24T21:12:27;98149.66;;;22.61;100.00
929;BME280;451;47.988;7.842;2023-08-24T21:21:30;98100.09;;;22.37;100.00
929;BME280;451;47.988;7.842;2023-08-24T21:30:35;98086.41;;;22.65;100.00
929;BME280;451;47.988;7.842;2023-08-24T21:39:38;98106.78;;;22.61;100.00
929;BME280;451;47.988;7.842;2023-08-24T21:48:43;98197.34;;;21.89;100.00
929;BME280;451;47.988;7.842;2023-08-24T21:57:46;98158.28;;;21.49;100.00
929;BME280;451;47.988;7.842;2023-08-24T22:06:54;98126.81;;;21.35;100.00
929;BME280;451;47.988;7.842;2023-08-24T22:15:58;98146.88;;;21.15;100.00
929;BME280;451;47.988;7.842;2023-08-24T22:25:04;98156.72;;;21.31;100.00
929;BME280;451;47.988;7.842;2023-08-24T22:34:07;98154.75;;;21.44;100.00
929;BME280;451;47.988;7.842;2023-08-24T22:43:11;98168.00;;;21.33;100.00
929;BME280;451;47.988;7.842;2023-08-24T22:52:15;98134.53;;;21.14;100.00
929;BME280;451;47.988;7.842;2023-08-24T23:01:20;98154.31;;;21.30;100.00
929;BME280;451;47.988;7.842;2023-08-24T23:10:24;98184.44;;;21.42;100.00
929;BME280;451;47.988;7.842;2023-08-24T23:19:28;98206.28;;;21.56;100.00
929;BME280;451;47.988;7.842;2023-08-24T23:28:33;98194.56;;;21.62;100.00
929;BME280;451;47.988;7.842;2023-08-24T23:37:38;98216.38;;;21.49;100.00
929;BME280;451;47.988;7.842;2023-08-24T23:46:42;98214.88;;;21.58;100.00
929;BME280;451;47.988;7.842;2023-08-24T23:55:46;98186.06;;;21.10;100.00
